createdAt,value
2023-02-22T00:02:14.538Z,1937.35706
2023-02-22T00:17:16.809Z,1659.68604
2023-02-22T00:32:19.358Z,1218.45557
2023-02-22T00:47:21.713Z,812.72632
2023-02-22T01:02:23.969Z,441.23053
2023-02-22T01:17:26.623Z,169.89911
2023-02-22T01:32:28.884Z,35.50131
2023-02-22T01:47:31.232Z,2.53581
2023-02-22T02:02:33.455Z,0
2023-02-22T02:17:35.716Z,0
2023-02-22T02:32:37.969Z,0
2023-02-22T02:47:40.329Z,0
2023-02-22T03:02:42.792Z,0
2023-02-22T03:17:45.073Z,0
2023-02-22T03:32:47.273Z,0
2023-02-22T03:47:49.478Z,0
2023-02-22T04:02:51.811Z,0
2023-02-22T04:17:54.079Z,0
2023-02-22T04:32:56.536Z,0
2023-02-22T04:47:58.748Z,0
2023-02-22T05:03:01.000Z,0
2023-02-22T05:18:03.193Z,0
2023-02-22T05:33:05.421Z,0
2023-02-22T05:48:07.685Z,0
2023-02-22T06:03:09.943Z,0
2023-02-22T06:18:12.192Z,0
2023-02-22T06:33:14.670Z,0
2023-02-22T06:48:16.906Z,0
2023-02-22T07:03:19.425Z,0
2023-02-22T07:18:21.893Z,0
2023-02-22T07:33:24.257Z,0
2023-02-22T07:48:26.643Z,0
2023-02-22T08:03:28.974Z,0
2023-02-22T08:18:31.274Z,0
2023-02-22T08:33:33.629Z,0
2023-02-22T08:48:35.981Z,0
2023-02-22T09:03:38.270Z,0
2023-02-22T09:18:44.239Z,0
2023-02-22T09:33:47.539Z,0
2023-02-22T09:48:49.859Z,0
2023-02-22T10:03:52.140Z,0
2023-02-22T10:18:54.416Z,0
2023-02-22T10:33:56.667Z,0
2023-02-22T10:48:58.915Z,0
2023-02-22T11:04:01.356Z,0
2023-02-22T11:19:03.673Z,0
2023-02-22T11:34:05.907Z,0
2023-02-22T11:49:08.160Z,0
2023-02-22T12:04:10.762Z,0
2023-02-22T12:19:13.279Z,0
2023-02-22T12:34:15.579Z,0
2023-02-22T12:49:17.906Z,0
2023-02-22T13:04:21.533Z,0
2023-02-22T13:19:23.863Z,0
2023-02-22T13:34:26.272Z,0
2023-02-22T13:49:28.476Z,0
2023-02-22T14:04:30.764Z,0
2023-02-22T14:19:33.024Z,3.80371
2023-02-22T14:34:35.300Z,64.66309
2023-02-22T14:49:37.508Z,347.40564
2023-02-22T15:04:39.770Z,830.47699
2023-02-22T15:19:42.085Z,1330.03113
2023-02-22T15:34:44.351Z,1946.2323
2023-02-22T15:49:46.563Z,2676.54492
2023-02-22T16:04:59.278Z,3423.34033
2023-02-22T16:20:02.376Z,4062.36377
2023-02-22T16:35:04.659Z,4653.20703
2023-02-22T16:50:06.914Z,5869.12695
2023-02-22T17:05:09.209Z,7156.04932
2023-02-22T17:20:11.510Z,8216.0166
2023-02-22T17:35:13.847Z,9075.65527
2023-02-22T17:50:16.072Z,11400.99121
2023-02-22T18:05:18.339Z,13306.65039
2023-02-22T18:20:20.582Z,15022.12402
2023-02-22T18:35:22.818Z,17027.94727
2023-02-22T18:50:25.186Z,19807.19336
2023-02-22T19:05:27.543Z,20349.85547
2023-02-22T19:20:29.768Z,14801.50879
2023-02-22T19:35:32.007Z,14573.28613
2023-02-22T19:50:34.324Z,14268.98926
2023-02-22T20:05:36.529Z,12569.99805
2023-02-22T20:20:39.152Z,12081.85547
2023-02-22T20:35:41.388Z,12223.86035
2023-02-22T20:50:43.674Z,11932.24316
2023-02-22T21:05:45.932Z,10893.8291
2023-02-22T21:20:48.388Z,9741.30469
2023-02-22T21:35:50.605Z,9519.42188
2023-02-22T21:50:52.855Z,9118.76465
2023-02-22T22:05:55.085Z,8545.67188
2023-02-22T22:20:58.014Z,8358.02148
2023-02-22T22:36:00.267Z,8598.92383
2023-02-22T22:51:02.673Z,7735.48096
2023-02-22T23:06:05.157Z,6553.79492
2023-02-22T23:21:07.350Z,5941.39746
2023-02-22T23:36:09.744Z,5230.10303
2023-02-22T23:51:12.016Z,4139.70605
